sensor_id;sensor_type;location;lat;lon;timestamp;temperature;humidity
47590;DHT22;33316;52.298;9.056;2023-06-04T00:01:21;12.60;67.40
47590;DHT22;33316;52.298;9.056;2023-06-04T00:03:47;12.50;67.40
47590;DHT22;33316;52.298;9.056;2023-06-04T00:06:25;12.50;67.50
47590;DHT22;33316;52.298;9.056;2023-06-04T00:09:05;12.50;67.70
47590;DHT22;33316;52.298;9.056;2023-06-04T00:11:32;12.50;67.70
47590;DHT22;33316;52.298;9.056;2023-06-04T00:14:17;12.40;67.70
47590;DHT22;33316;52.298;9.056;2023-06-04T00:16:44;12.40;68.00
47590;DHT22;33316;52.298;9.056;2023-06-04T00:19:10;12.30;67.80
47590;DHT22;33316;52.298;9.056;2023-06-04T00:21:39;12.30;67.90
47590;DHT22;33316;52.298;9.056;2023-06-04T00:24:06;12.30;68.00
47590;DHT22;33316;52.298;9.056;2023-06-04T00:26:33;12.20;68.20
47590;DHT22;33316;52.298;9.056;2023-06-04T00:29:00;12.20;68.20
47590;DHT22;33316;52.298;9.056;2023-06-04T00:31:29;12.20;68.20
47590;DHT22;33316;52.298;9.056;2023-06-04T00:33:55;12.20;68.30
47590;DHT22;33316;52.298;9.056;2023-06-04T00:36:22;12.10;68.30
47590;DHT22;33316;52.298;9.056;2023-06-04T00:38:51;12.10;68.30
47590;DHT22;33316;52.298;9.056;2023-06-04T00:41:23;12.10;68.30
47590;DHT22;33316;52.298;9.056;2023-06-04T00:43:57;12.00;68.30
47590;DHT22;33316;52.298;9.056;2023-06-04T00:46:32;12.00;68.50
47590;DHT22;33316;52.298;9.056;2023-06-04T00:49:04;11.90;68.60
47590;DHT22;33316;52.298;9.056;2023-06-04T00:51:33;11.90;68.70
47590;DHT22;33316;52.298;9.056;2023-06-04T00:54:02;11.80;68.70
47590;DHT22;33316;52.298;9.056;2023-06-04T00:56:41;11.80;68.80
47590;DHT22;33316;52.298;9.056;2023-06-04T00:59:11;11.80;68.90
47590;DHT22;33316;52.298;9.056;2023-06-04T01:01:49;11.70;68.90
47590;DHT22;33316;52.298;9.056;2023-06-04T01:04:25;11.70;68.90
47590;DHT22;33316;52.298;9.056;2023-06-04T01:06:53;11.70;69.00
47590;DHT22;33316;52.298;9.056;2023-06-04T01:09:21;11.60;69.00
47590;DHT22;33316;52.298;9.056;2023-06-04T01:11:48;11.60;69.20
47590;DHT22;33316;52.298;9.056;2023-06-04T01:14:14;11.60;69.20
47590;DHT22;33316;52.298;9.056;2023-06-04T01:16:47;11.50;69.30
47590;DHT22;33316;52.298;9.056;2023-06-04T01:19:44;11.50;69.60
47590;DHT22;33316;52.298;9.056;2023-06-04T01:22:20;11.40;69.80
47590;DHT22;33316;52.298;9.056;2023-06-04T01:24:56;11.40;69.70
47590;DHT22;33316;52.298;9.056;2023-06-04T01:27:24;11.40;69.80
47590;DHT22;33316;52.298;9.056;2023-06-04T01:30:04;11.30;70.00
47590;DHT22;33316;52.298;9.056;2023-06-04T01:32:36;11.30;70.20
47590;DHT22;33316;52.298;9.056;2023-06-04T01:35:07;11.30;70.20
47590;DHT22;33316;52.298;9.056;2023-06-04T01:37:37;11.30;70.40
47590;DHT22;33316;52.298;9.056;2023-06-04T01:40:07;11.20;70.60
47590;DHT22;33316;52.298;9.056;2023-06-04T01:42:37;11.20;70.80
47590;DHT22;33316;52.298;9.056;2023-06-04T01:45:04;11.10;70.80
47590;DHT22;33316;52.298;9.056;2023-06-04T01:47:31;11.10;70.90
47590;DHT22;33316;52.298;9.056;2023-06-04T01:50:07;11.10;71.00
47590;DHT22;33316;52.298;9.056;2023-06-04T01:52:34;11.10;71.00
47590;DHT22;33316;52.298;9.056;2023-06-04T01:55:02;11.10;71.00
47590;DHT22;33316;52.298;9.056;2023-06-04T01:57:29;11.00;71.10
47590;DHT22;33316;52.298;9.056;2023-06-04T01:59:56;11.00;71.20
47590;DHT22;33316;52.298;9.056;2023-06-04T02:02:23;10.90;71.20
47590;DHT22;33316;52.298;9.056;2023-06-04T02:04:51;10.90;71.10
47590;DHT22;33316;52.298;9.056;2023-06-04T02:07:23;10.80;71.10
47590;DHT22;33316;52.298;9.056;2023-06-04T02:09:51;10.80;71.60
47590;DHT22;33316;52.298;9.056;2023-06-04T02:12:18;10.80;71.20
47590;DHT22;33316;52.298;9.056;2023-06-04T02:14:45;10.70;71.20
47590;DHT22;33316;52.298;9.056;2023-06-04T02:17:12;10.70;71.40
47590;DHT22;33316;52.298;9.056;2023-06-04T02:19:39;10.70;71.50
47590;DHT22;33316;52.298;9.056;2023-06-04T02:22:16;10.60;71.60
47590;DHT22;33316;52.298;9.056;2023-06-04T02:24:53;10.60;71.70
47590;DHT22;33316;52.298;9.056;2023-06-04T02:27:20;10.50;71.70
47590;DHT22;33316;52.298;9.056;2023-06-04T02:29:46;10.50;71.80
47590;DHT22;33316;52.298;9.056;2023-06-04T02:32:19;10.50;72.70
47590;DHT22;33316;52.298;9.056;2023-06-04T02:34:55;10.50;72.00
47590;DHT22;33316;52.298;9.056;2023-06-04T02:37:25;10.40;72.00
47590;DHT22;33316;52.298;9.056;2023-06-04T02:39:53;10.40;72.10
47590;DHT22;33316;52.298;9.056;2023-06-04T02:42:22;10.40;72.30
47590;DHT22;33316;52.298;9.056;2023-06-04T02:44:49;10.40;72.40
47590;DHT22;33316;52.298;9.056;2023-06-04T02:47:15;10.30;72.40
47590;DHT22;33316;52.298;9.056;2023-06-04T02:49:44;10.30;72.60
47590;DHT22;33316;52.298;9.056;2023-06-04T02:52:11;10.30;72.70
47590;DHT22;33316;52.298;9.056;2023-06-04T02:54:37;10.30;72.70
47590;DHT22;33316;52.298;9.056;2023-06-04T02:57:10;10.30;72.80
47590;DHT22;33316;52.298;9.056;2023-06-04T02:59:37;10.20;72.80
47590;DHT22;33316;52.298;9.056;2023-06-04T03:02:06;10.20;72.90
47590;DHT22;33316;52.298;9.056;2023-06-04T03:04:36;10.20;73.00
47590;DHT22;33316;52.298;9.056;2023-06-04T03:07:13;10.20;73.10
47590;DHT22;33316;52.298;9.056;2023-06-04T03:09:40;10.20;73.10
47590;DHT22;33316;52.298;9.056;2023-06-04T03:12:09;10.10;73.00
47590;DHT22;33316;52.298;9.056;2023-06-04T03:14:36;10.10;73.00
47590;DHT22;33316;52.298;9.056;2023-06-04T03:17:04;10.10;72.90
47590;DHT22;33316;52.298;9.056;2023-06-04T03:19:36;10.00;73.00
47590;DHT22;33316;52.298;9.056;2023-06-04T03:22:07;10.00;73.20
47590;DHT22;33316;52.298;9.056;2023-06-04T03:24:50;10.00;73.40
47590;DHT22;33316;52.298;9.056;2023-06-04T03:27:19;10.00;73.60
47590;DHT22;33316;52.298;9.056;2023-06-04T03:29:51;10.00;73.80
47590;DHT22;33316;52.298;9.056;2023-06-04T03:32:18;9.90;73.80
47590;DHT22;33316;52.298;9.056;2023-06-04T03:34:44;9.90;74.00
47590;DHT22;33316;52.298;9.056;2023-06-04T03:37:11;9.90;74.20
47590;DHT22;33316;52.298;9.056;2023-06-04T03:39:39;9.90;74.30
47590;DHT22;33316;52.298;9.056;2023-06-04T03:42:09;9.90;74.40
47590;DHT22;33316;52.298;9.056;2023-06-04T03:44:37;9.90;74.70
47590;DHT22;33316;52.298;9.056;2023-06-04T03:47:10;9.90;74.70
47590;DHT22;33316;52.298;9.056;2023-06-04T03:49:39;9.90;74.70
47590;DHT22;33316;52.298;9.056;2023-06-04T03:52:07;9.90;74.70
47590;DHT22;33316;52.298;9.056;2023-06-04T03:54:33;9.90;74.80
47590;DHT22;33316;52.298;9.056;2023-06-04T03:57:01;9.90;74.80
47590;DHT22;33316;52.298;9.056;2023-06-04T03:59:43;9.90;74.80
47590;DHT22;33316;52.298;9.056;2023-06-04T04:02:13;9.90;74.90
47590;DHT22;33316;52.298;9.056;2023-06-04T04:04:40;9.90;74.80
47590;DHT22;33316;52.298;9.056;2023-06-04T04:07:07;9.90;74.90
47590;DHT22;33316;52.298;9.056;2023-06-04T04:09:34;10.00;75.10
47590;DHT22;33316;52.298;9.056;2023-06-04T04:12:05;10.00;75.20
47590;DHT22;33316;52.298;9.056;2023-06-04T04:14:34;10.00;75.20
47590;DHT22;33316;52.298;9.056;2023-06-04T04:17:06;10.00;75.20
47590;DHT22;33316;52.298;9.056;2023-06-04T04:19:35;10.00;75.20
47590;DHT22;33316;52.298;9.056;2023-06-04T04:22:02;10.00;75.10
47590;DHT22;33316;52.298;9.056;2023-06-04T04:24:35;10.10;75.00
47590;DHT22;33316;52.298;9.056;2023-06-04T04:27:03;10.10;74.80
47590;DHT22;33316;52.298;9.056;2023-06-04T04:29:39;10.10;74.60
47590;DHT22;33316;52.298;9.056;2023-06-04T04:32:11;10.20;74.60
47590;DHT22;33316;52.298;9.056;2023-06-04T04:34:38;10.20;74.60
47590;DHT22;33316;52.298;9.056;2023-06-04T04:37:16;10.30;74.80
47590;DHT22;33316;52.298;9.056;2023-06-04T04:39:52;10.30;74.90
47590;DHT22;33316;52.298;9.056;2023-06-04T04:42:24;10.30;75.00
47590;DHT22;33316;52.298;9.056;2023-06-04T04:44:51;10.40;75.10
47590;DHT22;33316;52.298;9.056;2023-06-04T04:47:21;10.40;75.10
47590;DHT22;33316;52.298;9.056;2023-06-04T04:49:48;10.40;75.20
47590;DHT22;33316;52.298;9.056;2023-06-04T04:52:15;10.50;75.20
47590;DHT22;33316;52.298;9.056;2023-06-04T04:54:42;10.50;75.30
47590;DHT22;33316;52.298;9.056;2023-06-04T04:57:08;10.50;75.20
47590;DHT22;33316;52.298;9.056;2023-06-04T04:59:35;10.60;74.80
47590;DHT22;33316;52.298;9.056;2023-06-04T05:02:02;10.60;74.60
47590;DHT22;33316;52.298;9.056;2023-06-04T05:04:30;10.70;74.40
47590;DHT22;33316;52.298;9.056;2023-06-04T05:06:56;10.70;74.20
47590;DHT22;33316;52.298;9.056;2023-06-04T05:09:23;10.80;74.10
47590;DHT22;33316;52.298;9.056;2023-06-04T05:11:50;10.80;74.50
47590;DHT22;33316;52.298;9.056;2023-06-04T05:14:16;11.00;74.80
47590;DHT22;33316;52.298;9.056;2023-06-04T05:16:43;11.10;75.00
47590;DHT22;33316;52.298;9.056;2023-06-04T05:19:10;11.30;74.80
47590;DHT22;33316;52.298;9.056;2023-06-04T05:21:38;11.50;74.50
47590;DHT22;33316;52.298;9.056;2023-06-04T05:24:05;11.80;74.00
47590;DHT22;33316;52.298;9.056;2023-06-04T05:26:32;12.10;73.50
47590;DHT22;33316;52.298;9.056;2023-06-04T05:28:58;12.40;73.30
47590;DHT22;33316;52.298;9.056;2023-06-04T05:31:25;12.70;73.00
47590;DHT22;33316;52.298;9.056;2023-06-04T05:33:53;13.00;72.20
47590;DHT22;33316;52.298;9.056;2023-06-04T05:36:20;13.30;71.30
47590;DHT22;33316;52.298;9.056;2023-06-04T05:39:06;13.50;70.60
47590;DHT22;33316;52.298;9.056;2023-06-04T05:41:34;13.80;70.20
47590;DHT22;33316;52.298;9.056;2023-06-04T05:44:01;14.00;69.40
47590;DHT22;33316;52.298;9.056;2023-06-04T05:46:27;14.20;68.80
47590;DHT22;33316;52.298;9.056;2023-06-04T05:48:54;14.30;68.30
47590;DHT22;33316;52.298;9.056;2023-06-04T05:51:21;14.50;67.90
47590;DHT22;33316;52.298;9.056;2023-06-04T05:53:47;14.70;67.20
47590;DHT22;33316;52.298;9.056;2023-06-04T05:56:15;14.90;66.10
47590;DHT22;33316;52.298;9.056;2023-06-04T05:58:42;15.00;65.60
47590;DHT22;33316;52.298;9.056;2023-06-04T06:01:09;15.20;65.60
47590;DHT22;33316;52.298;9.056;2023-06-04T06:03:35;15.40;65.30
47590;DHT22;33316;52.298;9.056;2023-06-04T06:06:03;15.50;65.00
47590;DHT22;33316;52.298;9.056;2023-06-04T06:08:31;15.60;64.40
47590;DHT22;33316;52.298;9.056;2023-06-04T06:10:57;15.80;64.00
47590;DHT22;33316;52.298;9.056;2023-06-04T06:13:25;16.00;63.50
47590;DHT22;33316;52.298;9.056;2023-06-04T06:15:55;16.10;62.80
47590;DHT22;33316;52.298;9.056;2023-06-04T06:18:22;16.10;62.60
47590;DHT22;33316;52.298;9.056;2023-06-04T06:20:49;16.20;63.00
47590;DHT22;33316;52.298;9.056;2023-06-04T06:23:15;16.30;63.10
47590;DHT22;33316;52.298;9.056;2023-06-04T06:25:44;16.30;63.20
47590;DHT22;33316;52.298;9.056;2023-06-04T06:28:11;16.40;63.20
47590;DHT22;33316;52.298;9.056;2023-06-04T06:30:39;16.50;63.30
47590;DHT22;33316;52.298;9.056;2023-06-04T06:33:06;16.50;62.80
47590;DHT22;33316;52.298;9.056;2023-06-04T06:35:33;16.60;62.80
47590;DHT22;33316;52.298;9.056;2023-06-04T06:38:00;16.60;62.20
47590;DHT22;33316;52.298;9.056;2023-06-04T06:40:27;16.60;62.10
47590;DHT22;33316;52.298;9.056;2023-06-04T06:42:55;16.70;62.10
47590;DHT22;33316;52.298;9.056;2023-06-04T06:45:25;16.80;61.70
47590;DHT22;33316;52.298;9.056;2023-06-04T06:47:53;16.90;61.20
47590;DHT22;33316;52.298;9.056;2023-06-04T06:50:19;16.90;60.90
47590;DHT22;33316;52.298;9.056;2023-06-04T06:52:46;16.90;60.80
47590;DHT22;33316;52.298;9.056;2023-06-04T06:55:13;16.90;60.50
47590;DHT22;33316;52.298;9.056;2023-06-04T06:57:42;16.90;60.60
47590;DHT22;33316;52.298;9.056;2023-06-04T07:00:13;17.00;60.50
47590;DHT22;33316;52.298;9.056;2023-06-04T07:02:41;17.10;60.50
47590;DHT22;33316;52.298;9.056;2023-06-04T07:05:09;17.20;60.50
47590;DHT22;33316;52.298;9.056;2023-06-04T07:07:35;17.30;60.20
47590;DHT22;33316;52.298;9.056;2023-06-04T07:10:03;17.40;59.90
47590;DHT22;33316;52.298;9.056;2023-06-04T07:12:40;17.40;59.90
47590;DHT22;33316;52.298;9.056;2023-06-04T07:15:07;17.50;60.10
47590;DHT22;33316;52.298;9.056;2023-06-04T07:17:34;17.60;60.00
47590;DHT22;33316;52.298;9.056;2023-06-04T07:20:01;17.60;59.70
47590;DHT22;33316;52.298;9.056;2023-06-04T07:22:30;17.70;60.00
47590;DHT22;33316;52.298;9.056;2023-06-04T07:24:57;17.70;60.20
47590;DHT22;33316;52.298;9.056;2023-06-04T07:27:29;17.90;60.30
47590;DHT22;33316;52.298;9.056;2023-06-04T07:29:56;17.90;59.70
47590;DHT22;33316;52.298;9.056;2023-06-04T07:32:26;17.90;59.40
47590;DHT22;33316;52.298;9.056;2023-06-04T07:34:53;17.90;60.10
47590;DHT22;33316;52.298;9.056;2023-06-04T07:37:19;18.00;60.00
47590;DHT22;33316;52.298;9.056;2023-06-04T07:39:47;18.10;60.00
47590;DHT22;33316;52.298;9.056;2023-06-04T07:42:14;18.20;59.90
47590;DHT22;33316;52.298;9.056;2023-06-04T07:44:41;18.30;59.90
47590;DHT22;33316;52.298;9.056;2023-06-04T07:47:07;18.40;60.10
47590;DHT22;33316;52.298;9.056;2023-06-04T07:49:34;18.50;59.70
47590;DHT22;33316;52.298;9.056;2023-06-04T07:52:01;18.60;59.80
47590;DHT22;33316;52.298;9.056;2023-06-04T07:54:27;18.80;59.70
47590;DHT22;33316;52.298;9.056;2023-06-04T07:56:58;18.80;59.60
47590;DHT22;33316;52.298;9.056;2023-06-04T07:59:24;18.90;59.50
47590;DHT22;33316;52.298;9.056;2023-06-04T08:01:57;18.90;58.60
47590;DHT22;33316;52.298;9.056;2023-06-04T08:04:24;18.90;58.30
47590;DHT22;33316;52.298;9.056;2023-06-04T08:06:51;19.00;58.20
47590;DHT22;33316;52.298;9.056;2023-06-04T08:09:24;19.00;58.40
47590;DHT22;33316;52.298;9.056;2023-06-04T08:11:50;19.10;58.50
47590;DHT22;33316;52.298;9.056;2023-06-04T08:14:21;19.20;58.30
47590;DHT22;33316;52.298;9.056;2023-06-04T08:16:52;19.20;57.20
47590;DHT22;33316;52.298;9.056;2023-06-04T08:19:19;19.20;57.30
47590;DHT22;33316;52.298;9.056;2023-06-04T08:21:49;19.20;57.00
47590;DHT22;33316;52.298;9.056;2023-06-04T08:24:16;19.30;56.20
47590;DHT22;33316;52.298;9.056;2023-06-04T08:26:45;19.30;55.90
47590;DHT22;33316;52.298;9.056;2023-06-04T08:29:15;19.30;55.70
47590;DHT22;33316;52.298;9.056;2023-06-04T08:31:43;19.30;55.50
47590;DHT22;33316;52.298;9.056;2023-06-04T08:34:10;19.30;55.40
47590;DHT22;33316;52.298;9.056;2023-06-04T08:36:36;19.30;54.70
47590;DHT22;33316;52.298;9.056;2023-06-04T08:39:05;19.40;54.60
47590;DHT22;33316;52.298;9.056;2023-06-04T08:41:38;19.40;54.50
47590;DHT22;33316;52.298;9.056;2023-06-04T08:44:09;19.40;54.70
47590;DHT22;33316;52.298;9.056;2023-06-04T08:46:37;19.40;55.20
47590;DHT22;33316;52.298;9.056;2023-06-04T08:49:07;19.50;54.60
47590;DHT22;33316;52.298;9.056;2023-06-04T08:51:35;19.50;54.50
47590;DHT22;33316;52.298;9.056;2023-06-04T08:54:03;19.60;54.20
47590;DHT22;33316;52.298;9.056;2023-06-04T08:56:31;19.70;53.70
47590;DHT22;33316;52.298;9.056;2023-06-04T08:59:00;19.70;53.50
47590;DHT22;33316;52.298;9.056;2023-06-04T09:01:27;19.70;53.50
47590;DHT22;33316;52.298;9.056;2023-06-04T09:03:55;19.70;52.50
47590;DHT22;33316;52.298;9.056;2023-06-04T09:06:25;19.70;52.20
47590;DHT22;33316;52.298;9.056;2023-06-04T09:08:51;19.80;51.80
47590;DHT22;33316;52.298;9.056;2023-06-04T09:11:19;19.80;50.60
47590;DHT22;33316;52.298;9.056;2023-06-04T09:13:47;19.80;50.10
47590;DHT22;33316;52.298;9.056;2023-06-04T09:16:14;19.80;50.50
47590;DHT22;33316;52.298;9.056;2023-06-04T09:18:40;19.90;50.30
47590;DHT22;33316;52.298;9.056;2023-06-04T09:21:08;20.00;49.50
47590;DHT22;33316;52.298;9.056;2023-06-04T09:23:37;20.00;49.10
47590;DHT22;33316;52.298;9.056;2023-06-04T09:26:10;20.00;48.50
47590;DHT22;33316;52.298;9.056;2023-06-04T09:28:40;20.10;48.10
47590;DHT22;33316;52.298;9.056;2023-06-04T09:31:08;20.20;47.80
47590;DHT22;33316;52.298;9.056;2023-06-04T09:33:42;20.20;47.40
47590;DHT22;33316;52.298;9.056;2023-06-04T09:36:09;20.20;47.10
47590;DHT22;33316;52.298;9.056;2023-06-04T09:38:38;20.20;47.00
47590;DHT22;33316;52.298;9.056;2023-06-04T09:41:11;20.30;47.30
47590;DHT22;33316;52.298;9.056;2023-06-04T09:43:38;20.30;45.20
47590;DHT22;33316;52.298;9.056;2023-06-04T09:46:09;20.30;44.50
47590;DHT22;33316;52.298;9.056;2023-06-04T09:48:36;20.30;44.70
47590;DHT22;33316;52.298;9.056;2023-06-04T09:51:07;20.30;45.30
47590;DHT22;33316;52.298;9.056;2023-06-04T09:53:34;20.40;45.40
47590;DHT22;33316;52.298;9.056;2023-06-04T09:56:03;20.40;45.80
47590;DHT22;33316;52.298;9.056;2023-06-04T09:58:34;20.50;46.50
47590;DHT22;33316;52.298;9.056;2023-06-04T10:01:03;20.50;45.20
47590;DHT22;33316;52.298;9.056;2023-06-04T10:03:31;20.50;44.90
47590;DHT22;33316;52.298;9.056;2023-06-04T10:06:00;20.50;45.10
47590;DHT22;33316;52.298;9.056;2023-06-04T10:08:27;20.50;45.10
47590;DHT22;33316;52.298;9.056;2023-06-04T10:10:59;20.50;44.20
47590;DHT22;33316;52.298;9.056;2023-06-04T10:13:29;20.60;44.20
47590;DHT22;33316;52.298;9.056;2023-06-04T10:15:57;20.50;44.00
47590;DHT22;33316;52.298;9.056;2023-06-04T10:18:28;20.50;43.60
47590;DHT22;33316;52.298;9.056;2023-06-04T10:20:58;20.50;43.50
47590;DHT22;33316;52.298;9.056;2023-06-04T10:23:25;20.60;43.40
47590;DHT22;33316;52.298;9.056;2023-06-04T10:25:52;20.60;43.80
47590;DHT22;33316;52.298;9.056;2023-06-04T10:28:20;20.60;45.10
47590;DHT22;33316;52.298;9.056;2023-06-04T10:30:49;20.70;45.50
47590;DHT22;33316;52.298;9.056;2023-06-04T10:33:17;20.70;45.90
47590;DHT22;33316;52.298;9.056;2023-06-04T10:35:49;20.80;44.80
47590;DHT22;33316;52.298;9.056;2023-06-04T10:38:16;20.90;44.90
47590;DHT22;33316;52.298;9.056;2023-06-04T10:40:44;20.90;45.60
47590;DHT22;33316;52.298;9.056;2023-06-04T10:43:12;20.90;45.90
47590;DHT22;33316;52.298;9.056;2023-06-04T10:45:39;21.00;46.10
47590;DHT22;33316;52.298;9.056;2023-06-04T10:48:10;21.10;45.30
47590;DHT22;33316;52.298;9.056;2023-06-04T10:50:48;21.20;44.80
47590;DHT22;33316;52.298;9.056;2023-06-04T10:53:16;21.10;43.20
47590;DHT22;33316;52.298;9.056;2023-06-04T10:55:43;21.10;43.50
47590;DHT22;33316;52.298;9.056;2023-06-04T10:58:10;21.10;43.50
47590;DHT22;33316;52.298;9.056;2023-06-04T11:00:38;21.10;44.10
47590;DHT22;33316;52.298;9.056;2023-06-04T11:03:05;21.10;44.50
47590;DHT22;33316;52.298;9.056;2023-06-04T11:05:35;21.30;44.30
47590;DHT22;33316;52.298;9.056;2023-06-04T11:08:12;21.30;44.10
47590;DHT22;33316;52.298;9.056;2023-06-04T11:10:51;21.40;43.90
47590;DHT22;33316;52.298;9.056;2023-06-04T11:13:23;21.40;43.20
47590;DHT22;33316;52.298;9.056;2023-06-04T11:15:50;21.30;41.80
47590;DHT22;33316;52.298;9.056;2023-06-04T11:18:21;21.30;42.30
47590;DHT22;33316;52.298;9.056;2023-06-04T11:20:59;21.30;42.30
47590;DHT22;33316;52.298;9.056;2023-06-04T11:23:26;21.40;42.20
47590;DHT22;33316;52.298;9.056;2023-06-04T11:25:53;21.40;42.10
47590;DHT22;33316;52.298;9.056;2023-06-04T11:28:20;21.30;41.90
47590;DHT22;33316;52.298;9.056;2023-06-04T11:30:56;21.40;41.80
47590;DHT22;33316;52.298;9.056;2023-06-04T11:33:23;21.40;41.80
47590;DHT22;33316;52.298;9.056;2023-06-04T11:35:51;21.40;42.60
47590;DHT22;33316;52.298;9.056;2023-06-04T11:38:18;21.40;42.80
47590;DHT22;33316;52.298;9.056;2023-06-04T11:40:55;21.50;43.10
47590;DHT22;33316;52.298;9.056;2023-06-04T11:43:22;21.60;43.30
47590;DHT22;33316;52.298;9.056;2023-06-04T11:45:50;21.60;42.30
47590;DHT22;33316;52.298;9.056;2023-06-04T11:48:16;21.50;41.80
47590;DHT22;33316;52.298;9.056;2023-06-04T11:50:43;21.60;42.30
47590;DHT22;33316;52.298;9.056;2023-06-04T11:53:11;21.60;41.30
47590;DHT22;33316;52.298;9.056;2023-06-04T11:55:39;21.60;41.30
47590;DHT22;33316;52.298;9.056;2023-06-04T11:58:06;21.60;41.00
47590;DHT22;33316;52.298;9.056;2023-06-04T12:00:33;21.70;42.00
47590;DHT22;33316;52.298;9.056;2023-06-04T12:03:00;21.70;41.30
47590;DHT22;33316;52.298;9.056;2023-06-04T12:05:29;21.70;40.90
47590;DHT22;33316;52.298;9.056;2023-06-04T12:08:04;21.70;40.90
47590;DHT22;33316;52.298;9.056;2023-06-04T12:10:37;21.80;42.10
47590;DHT22;33316;52.298;9.056;2023-06-04T12:13:04;21.80;42.50
47590;DHT22;33316;52.298;9.056;2023-06-04T12:15:31;21.90;41.50
47590;DHT22;33316;52.298;9.056;2023-06-04T12:17:58;21.90;41.30
47590;DHT22;33316;52.298;9.056;2023-06-04T12:20:33;21.90;41.50
47590;DHT22;33316;52.298;9.056;2023-06-04T12:23:00;22.00;41.90
47590;DHT22;33316;52.298;9.056;2023-06-04T12:25:28;22.10;41.70
47590;DHT22;33316;52.298;9.056;2023-06-04T12:27:57;22.10;41.40
47590;DHT22;33316;52.298;9.056;2023-06-04T12:30:31;22.20;41.30
47590;DHT22;33316;52.298;9.056;2023-06-04T12:33:02;22.20;40.70
47590;DHT22;33316;52.298;9.056;2023-06-04T12:35:28;22.30;40.80
47590;DHT22;33316;52.298;9.056;2023-06-04T12:37:55;22.20;39.60
47590;DHT22;33316;52.298;9.056;2023-06-04T12:40:22;22.10;39.00
47590;DHT22;33316;52.298;9.056;2023-06-04T12:42:50;22.10;39.50
47590;DHT22;33316;52.298;9.056;2023-06-04T12:45:18;22.10;40.00
47590;DHT22;33316;52.298;9.056;2023-06-04T12:47:45;22.20;40.40
47590;DHT22;33316;52.298;9.056;2023-06-04T12:50:13;22.30;39.80
47590;DHT22;33316;52.298;9.056;2023-06-04T12:52:39;22.30;39.20
47590;DHT22;33316;52.298;9.056;2023-06-04T12:55:07;22.30;39.40
47590;DHT22;33316;52.298;9.056;2023-06-04T12:57:34;22.30;39.00
47590;DHT22;33316;52.298;9.056;2023-06-04T13:00:01;22.30;39.20
47590;DHT22;33316;52.298;9.056;2023-06-04T13:02:30;22.30;39.30
47590;DHT22;33316;52.298;9.056;2023-06-04T13:05:04;22.30;38.80
47590;DHT22;33316;52.298;9.056;2023-06-04T13:07:31;22.30;39.40
47590;DHT22;33316;52.298;9.056;2023-06-04T13:09:57;22.40;39.90
47590;DHT22;33316;52.298;9.056;2023-06-04T13:12:26;22.50;39.80
47590;DHT22;33316;52.298;9.056;2023-06-04T13:14:52;22.60;39.70
47590;DHT22;33316;52.298;9.056;2023-06-04T13:17:20;22.60;40.00
47590;DHT22;33316;52.298;9.056;2023-06-04T13:19:48;22.70;40.20
47590;DHT22;33316;52.298;9.056;2023-06-04T13:22:15;22.60;39.60
47590;DHT22;33316;52.298;9.056;2023-06-04T13:24:41;22.70;40.70
47590;DHT22;33316;52.298;9.056;2023-06-04T13:27:08;22.80;41.20
47590;DHT22;33316;52.298;9.056;2023-06-04T13:29:35;22.80;40.90
47590;DHT22;33316;52.298;9.056;2023-06-04T13:32:01;22.90;40.50
47590;DHT22;33316;52.298;9.056;2023-06-04T13:34:29;22.90;39.60
47590;DHT22;33316;52.298;9.056;2023-06-04T13:36:58;22.80;38.10
47590;DHT22;33316;52.298;9.056;2023-06-04T13:39:25;22.80;38.30
47590;DHT22;33316;52.298;9.056;2023-06-04T13:41:52;22.80;38.30
47590;DHT22;33316;52.298;9.056;2023-06-04T13:44:18;22.80;38.80
47590;DHT22;33316;52.298;9.056;2023-06-04T13:46:46;22.80;38.50
47590;DHT22;33316;52.298;9.056;2023-06-04T13:49:12;22.70;38.80
47590;DHT22;33316;52.298;9.056;2023-06-04T13:51:39;22.70;38.60
47590;DHT22;33316;52.298;9.056;2023-06-04T13:54:07;22.70;38.80
47590;DHT22;33316;52.298;9.056;2023-06-04T13:56:34;22.70;38.90
47590;DHT22;33316;52.298;9.056;2023-06-04T13:59:00;22.70;38.90
47590;DHT22;33316;52.298;9.056;2023-06-04T14:01:27;22.80;38.40
47590;DHT22;33316;52.298;9.056;2023-06-04T14:03:53;22.80;38.50
47590;DHT22;33316;52.298;9.056;2023-06-04T14:06:20;22.80;38.70
47590;DHT22;33316;52.298;9.056;2023-06-04T14:08:47;22.80;38.90
47590;DHT22;33316;52.298;9.056;2023-06-04T14:11:15;22.90;38.70
47590;DHT22;33316;52.298;9.056;2023-06-04T14:13:41;22.80;38.80
47590;DHT22;33316;52.298;9.056;2023-06-04T14:16:10;22.90;38.90
47590;DHT22;33316;52.298;9.056;2023-06-04T14:18:37;22.90;39.10
47590;DHT22;33316;52.298;9.056;2023-06-04T14:21:04;22.90;39.10
47590;DHT22;33316;52.298;9.056;2023-06-04T14:23:31;22.90;39.10
47590;DHT22;33316;52.298;9.056;2023-06-04T14:25:57;22.90;39.00
47590;DHT22;33316;52.298;9.056;2023-06-04T14:28:26;23.00;39.50
47590;DHT22;33316;52.298;9.056;2023-06-04T14:30:52;23.00;39.40
47590;DHT22;33316;52.298;9.056;2023-06-04T14:33:19;23.00;38.90
47590;DHT22;33316;52.298;9.056;2023-06-04T14:35:45;23.00;38.90
47590;DHT22;33316;52.298;9.056;2023-06-04T14:38:13;23.00;39.10
47590;DHT22;33316;52.298;9.056;2023-06-04T14:40:41;23.00;39.50
47590;DHT22;33316;52.298;9.056;2023-06-04T14:43:09;23.10;39.60
47590;DHT22;33316;52.298;9.056;2023-06-04T14:45:37;23.10;39.60
47590;DHT22;33316;52.298;9.056;2023-06-04T14:48:05;23.10;39.70
47590;DHT22;33316;52.298;9.056;2023-06-04T14:50:32;23.10;39.40
47590;DHT22;33316;52.298;9.056;2023-06-04T14:52:59;23.10;39.10
47590;DHT22;33316;52.298;9.056;2023-06-04T14:55:26;23.10;39.40
47590;DHT22;33316;52.298;9.056;2023-06-04T14:57:53;23.00;39.90
47590;DHT22;33316;52.298;9.056;2023-06-04T15:00:20;23.10;40.00
47590;DHT22;33316;52.298;9.056;2023-06-04T15:02:48;23.00;40.40
47590;DHT22;33316;52.298;9.056;2023-06-04T15:05:14;23.10;40.50
47590;DHT22;33316;52.298;9.056;2023-06-04T15:07:41;23.10;40.70
47590;DHT22;33316;52.298;9.056;2023-06-04T15:10:08;23.20;40.90
47590;DHT22;33316;52.298;9.056;2023-06-04T15:12:35;23.20;40.10
47590;DHT22;33316;52.298;9.056;2023-06-04T15:15:04;23.20;40.00
47590;DHT22;33316;52.298;9.056;2023-06-04T15:17:31;23.20;39.30
47590;DHT22;33316;52.298;9.056;2023-06-04T15:20:00;23.10;39.60
47590;DHT22;33316;52.298;9.056;2023-06-04T15:22:26;23.20;39.50
47590;DHT22;33316;52.298;9.056;2023-06-04T15:24:53;23.10;39.30
47590;DHT22;33316;52.298;9.056;2023-06-04T15:27:19;23.10;39.50
47590;DHT22;33316;52.298;9.056;2023-06-04T15:29:46;23.10;39.00
47590;DHT22;33316;52.298;9.056;2023-06-04T15:32:13;23.10;39.40
47590;DHT22;33316;52.298;9.056;2023-06-04T15:34:40;23.10;39.60
47590;DHT22;33316;52.298;9.056;2023-06-04T15:37:09;23.10;39.40
47590;DHT22;33316;52.298;9.056;2023-06-04T15:39:35;23.10;39.30
47590;DHT22;33316;52.298;9.056;2023-06-04T15:42:02;23.10;38.90